Time;durP1;ratioP1;P1;durP2;ratioP2;P2;SDS_P1;SDS_P2;PMS_P1;PMS_P2;Temp;Humidity;BMP_temperature;BMP_pressure;BME280_temperature;BME280_humidity;BME280_pressure;Samples;Min_cycle;Max_cycle;Signal;HPM_P1;HPM_P2
2021/05/01 00:01:12;;;;;;;5.57;4.20;;;9.20;97.10;;;;;;5055943;28;20197;-62
2021/05/01 00:03:39;;;;;;;6.63;4.43;;;9.40;97.10;;;;;;5054425;28;20213;-62
2021/05/01 00:06:05;;;;;;;6.97;4.63;;;9.50;96.70;;;;;;5071188;28;20204;-61
2021/05/01 00:08:32;;;;;;;4.40;4.00;;;9.50;96.60;;;;;;5075043;28;20215;-61
2021/05/01 00:11:02;;;;;;;7.35;4.97;;;9.50;96.50;;;;;;5059801;28;20232;-62
2021/05/01 00:13:29;;;;;;;4.10;3.70;;;9.60;96.40;;;;;;5066879;28;20232;-61
2021/05/01 00:15:57;;;;;;;4.47;3.97;;;9.70;96.30;;;;;;5055986;28;20271;-62
2021/05/01 00:18:24;;;;;;;8.95;4.50;;;9.70;96.30;;;;;;5067012;28;20215;-61
2021/05/01 00:20:51;;;;;;;5.10;4.68;;;9.60;96.20;;;;;;5057551;28;20503;-61
2021/05/01 00:23:18;;;;;;;4.15;3.65;;;9.50;96.40;;;;;;5059720;28;20718;-62
2021/05/01 00:25:44;;;;;;;6.78;4.45;;;9.30;96.60;;;;;;5053794;28;20214;-61
2021/05/01 00:28:11;;;;;;;5.00;4.25;;;9.20;97.00;;;;;;5052510;28;20512;-62
2021/05/01 00:30:39;;;;;;;5.82;4.85;;;9.20;97.10;;;;;;5056342;28;20220;-62
2021/05/01 00:33:07;;;;;;;5.10;3.67;;;9.30;97.00;;;;;;5059609;28;20229;-62
2021/05/01 00:35:34;;;;;;;5.57;4.32;;;9.20;97.20;;;;;;5057104;28;20230;-62
2021/05/01 00:38:01;;;;;;;5.63;4.38;;;9.40;97.00;;;;;;5056572;28;20290;-61
2021/05/01 00:40:27;;;;;;;6.97;4.78;;;9.60;96.70;;;;;;5054111;28;20202;-62
2021/05/01 00:42:54;;;;;;;4.40;3.78;;;9.80;96.30;;;;;;5057157;28;20227;-61
2021/05/01 00:45:21;;;;;;;4.75;4.22;;;9.90;95.80;;;;;;5056462;28;20237;-61
2021/05/01 00:47:47;;;;;;;4.80;3.63;;;10.00;95.70;;;;;;5057357;28;20210;-62
2021/05/01 00:50:14;;;;;;;6.13;3.60;;;10.00;95.80;;;;;;5052689;28;20211;-61
2021/05/01 00:52:42;;;;;;;4.57;4.13;;;9.80;95.90;;;;;;5054665;28;20244;-61
2021/05/01 00:55:11;;;;;;;4.60;4.18;;;9.80;95.80;;;;;;5056226;28;20531;-62
2021/05/01 00:57:39;;;;;;;4.65;3.75;;;9.80;96.00;;;;;;5059173;28;20211;-62
2021/05/01 01:00:17;;;;;;;7.65;4.40;;;9.60;96.50;;;;;;5058765;28;20213;-61
2021/05/01 01:02:44;;;;;;;4.82;3.85;;;9.60;96.10;;;;;;5055569;28;20213;-61
2021/05/01 01:05:11;;;;;;;6.90;4.50;;;9.60;96.20;;;;;;5052813;28;20205;-60
2021/05/01 01:07:37;;;;;;;4.10;3.60;;;9.60;96.40;;;;;;5053340;28;20210;-61
2021/05/01 01:10:04;;;;;;;4.82;3.95;;;9.60;96.40;;;;;;5052609;28;20213;-60
2021/05/01 01:12:31;;;;;;;6.70;4.50;;;9.50;96.50;;;;;;5054756;28;20225;-62
2021/05/01 01:14:59;;;;;;;5.35;4.75;;;9.30;96.80;;;;;;5051775;28;20229;-61
2021/05/01 01:17:26;;;;;;;5.47;3.90;;;9.40;96.80;;;;;;5056703;28;20546;-61
2021/05/01 01:19:53;;;;;;;8.95;5.10;;;9.40;96.80;;;;;;5056605;28;20508;-61
2021/05/01 01:22:20;;;;;;;7.63;4.72;;;9.40;96.70;;;;;;5054926;28;20236;-61
2021/05/01 01:24:46;;;;;;;4.43;4.00;;;9.40;97.00;;;;;;5060820;28;20207;-63
2021/05/01 01:27:13;;;;;;;3.90;3.25;;;9.70;96.70;;;;;;5051504;28;20197;-61
2021/05/01 01:29:42;;;;;;;6.28;4.25;;;9.80;96.40;;;;;;5054135;28;20439;-61
2021/05/01 01:32:11;;;;;;;5.55;3.83;;;9.60;96.40;;;;;;5055016;28;20211;-61
2021/05/01 01:34:42;;;;;;;7.55;5.10;;;9.70;96.50;;;;;;5050997;28;20247;-61
2021/05/01 01:37:10;;;;;;;4.93;3.25;;;9.70;96.30;;;;;;5059282;28;20224;-61
2021/05/01 01:39:38;;;;;;;6.90;5.00;;;9.70;96.30;;;;;;5058041;28;20301;-61
2021/05/01 01:42:09;;;;;;;5.78;3.83;;;9.90;96.00;;;;;;5061441;28;20204;-61
2021/05/01 01:44:36;;;;;;;6.68;4.40;;;9.90;96.00;;;;;;5055944;28;20263;-61
2021/05/01 01:47:02;;;;;;;6.25;4.07;;;9.70;96.10;;;;;;5058021;28;20786;-61
2021/05/01 01:49:33;;;;;;;6.68;4.55;;;9.70;96.30;;;;;;5058227;28;20209;-61
2021/05/01 01:51:59;;;;;;;4.68;4.15;;;9.50;96.70;;;;;;5055905;28;20271;-61
2021/05/01 01:54:26;;;;;;;5.72;5.10;;;9.50;96.80;;;;;;5063094;28;20552;-60
2021/05/01 01:56:52;;;;;;;5.20;4.03;;;9.80;96.40;;;;;;5053595;28;20206;-61
2021/05/01 01:59:20;;;;;;;6.30;4.03;;;9.70;96.30;;;;;;5052384;28;20553;-61
2021/05/01 02:01:46;;;;;;;6.35;4.45;;;9.50;96.90;;;;;;5058769;28;20223;-61
2021/05/01 02:04:14;;;;;;;9.07;5.65;;;9.30;97.40;;;;;;5057091;28;20207;-61
2021/05/01 02:06:42;;;;;;;5.13;4.65;;;9.10;97.70;;;;;;5056041;28;20484;-61
2021/05/01 02:09:09;;;;;;;6.15;4.90;;;9.20;97.80;;;;;;5054917;28;20203;-61
2021/05/01 02:11:36;;;;;;;5.20;4.07;;;9.20;97.80;;;;;;5055851;28;20319;-61
2021/05/01 02:14:03;;;;;;;5.68;4.45;;;9.20;97.80;;;;;;5061659;28;20242;-60
2021/05/01 02:16:31;;;;;;;5.20;4.40;;;9.10;98.30;;;;;;5060257;28;20289;-60
2021/05/01 02:19:02;;;;;;;6.18;4.95;;;9.10;98.20;;;;;;5049792;28;20205;-61
2021/05/01 02:21:29;;;;;;;4.50;4.03;;;9.40;98.00;;;;;;5058160;28;20237;-61
2021/05/01 02:23:56;;;;;;;6.15;5.13;;;9.40;97.70;;;;;;5061009;28;20239;-60
2021/05/01 02:26:22;;;;;;;7.47;3.90;;;9.50;97.60;;;;;;5056307;28;20209;-61
2021/05/01 02:28:49;;;;;;;9.52;4.32;;;9.30;97.90;;;;;;5058245;28;20385;-62
2021/05/01 02:31:16;;;;;;;5.47;4.15;;;9.10;98.20;;;;;;5054713;28;20204;-60
2021/05/01 02:33:42;;;;;;;5.30;4.80;;;9.00;98.30;;;;;;5055448;28;20227;-60
2021/05/01 02:36:09;;;;;;;9.48;5.40;;;9.00;98.70;;;;;;5057813;28;20208;-62
2021/05/01 02:38:36;;;;;;;8.10;5.00;;;8.90;98.80;;;;;;5058535;28;20466;-61
2021/05/01 02:41:03;;;;;;;7.15;5.72;;;9.00;98.70;;;;;;5057388;28;20511;-61
2021/05/01 02:43:29;;;;;;;5.22;4.22;;;9.00;98.80;;;;;;5060276;28;20217;-61
2021/05/01 02:45:56;;;;;;;7.78;4.72;;;9.10;98.60;;;;;;5054225;28;20264;-61
2021/05/01 02:48:23;;;;;;;6.22;5.63;;;9.00;99.30;;;;;;5058917;28;20276;-60
2021/05/01 02:50:49;;;;;;;7.93;6.00;;;8.90;99.80;;;;;;5058939;28;20245;-62
2021/05/01 02:53:16;;;;;;;7.68;5.82;;;8.60;99.90;;;;;;5054137;28;20241;-62
2021/05/01 02:55:42;;;;;;;5.88;5.20;;;8.40;99.90;;;;;;5057731;28;20205;-60
2021/05/01 02:58:09;;;;;;;7.90;5.00;;;8.40;99.90;;;;;;5055431;28;20204;-60
2021/05/01 03:00:36;;;;;;;8.85;5.65;;;8.50;99.90;;;;;;5054074;28;20204;-62
2021/05/01 03:03:02;;;;;;;8.93;5.22;;;8.50;99.90;;;;;;5055054;28;20207;-62
2021/05/01 03:05:29;;;;;;;7.35;6.22;;;8.50;99.90;;;;;;5059309;28;20249;-62
2021/05/01 03:07:56;;;;;;;11.48;5.35;;;8.40;99.90;;;;;;5058173;28;20266;-62
2021/05/01 03:10:25;;;;;;;6.93;5.95;;;8.40;99.90;;;;;;5057391;28;20205;-62
2021/05/01 03:12:55;;;;;;;12.70;6.93;;;8.50;99.90;;;;;;5062216;28;20231;-63
2021/05/01 03:15:23;;;;;;;11.40;6.53;;;8.30;99.90;;;;;;5059540;28;20208;-63
2021/05/01 03:17:50;;;;;;;9.93;6.80;;;8.30;99.90;;;;;;5056125;28;20530;-62
2021/05/01 03:20:18;;;;;;;11.52;7.63;;;8.30;99.90;;;;;;5054500;28;20274;-62
2021/05/01 03:22:49;;;;;;;7.95;5.88;;;8.20;99.90;;;;;;5055606;28;20522;-62
2021/05/01 03:25:17;;;;;;;9.43;6.85;;;8.10;99.90;;;;;;5053908;28;20510;-63
2021/05/01 03:27:44;;;;;;;10.85;7.03;;;8.20;99.90;;;;;;5057106;28;20271;-63
2021/05/01 03:30:17;;;;;;;10.52;6.95;;;8.20;99.90;;;;;;5056045;28;20217;-63
2021/05/01 03:32:44;;;;;;;10.07;7.68;;;8.30;99.90;;;;;;5056495;28;20495;-63
2021/05/01 03:35:14;;;;;;;8.52;7.25;;;8.50;99.90;;;;;;5056736;28;20207;-63
2021/05/01 03:37:41;;;;;;;9.18;6.35;;;8.50;99.90;;;;;;5056178;28;20513;-62
2021/05/01 03:40:10;;;;;;;8.25;6.22;;;8.40;99.90;;;;;;5053740;28;20195;-63
2021/05/01 03:42:36;;;;;;;12.63;8.55;;;8.60;99.90;;;;;;5056068;28;20208;-62
2021/05/01 03:45:04;;;;;;;11.45;7.00;;;8.40;99.90;;;;;;5058245;28;20275;-62
2021/05/01 03:47:31;;;;;;;10.07;7.05;;;8.50;99.90;;;;;;5056490;28;20570;-62
2021/05/01 03:49:58;;;;;;;12.50;7.45;;;8.70;99.90;;;;;;5055506;28;20204;-63
2021/05/01 03:52:25;;;;;;;9.90;6.85;;;8.60;99.90;;;;;;5055015;28;20246;-64
2021/05/01 03:54:51;;;;;;;13.57;8.65;;;8.70;99.90;;;;;;5056480;28;20232;-64
2021/05/01 03:57:18;;;;;;;14.98;7.97;;;8.70;99.90;;;;;;5050499;28;20204;-64
2021/05/01 03:59:44;;;;;;;14.48;8.45;;;8.80;99.90;;;;;;5058188;28;20517;-65
2021/05/01 04:02:11;;;;;;;13.63;8.27;;;8.80;99.90;;;;;;5055324;28;20207;-66
2021/05/01 04:04:38;;;;;;;11.02;7.78;;;8.80;99.90;;;;;;5055344;28;20276;-67
2021/05/01 04:07:05;;;;;;;8.18;6.60;;;8.70;99.90;;;;;;5055005;28;20404;-69
2021/05/01 04:09:32;;;;;;;11.10;8.25;;;8.60;99.90;;;;;;5057789;28;20410;-70
2021/05/01 04:11:58;;;;;;;16.42;9.82;;;8.40;99.90;;;;;;5058393;28;20200;-69
2021/05/01 04:14:25;;;;;;;13.35;8.77;;;8.40;99.90;;;;;;5061363;28;20258;-69
2021/05/01 04:16:51;;;;;;;11.70;7.43;;;8.40;99.90;;;;;;5059649;28;20214;-71
2021/05/01 04:19:18;;;;;;;15.60;8.85;;;8.30;99.90;;;;;;5059153;28;20204;-70
2021/05/01 04:21:45;;;;;;;18.45;9.48;;;8.30;99.90;;;;;;5056352;28;20218;-70
2021/05/01 04:24:11;;;;;;;12.88;8.45;;;8.30;99.90;;;;;;5054602;28;20209;-70
2021/05/01 04:26:38;;;;;;;10.40;7.32;;;8.30;99.90;;;;;;5051007;28;20207;-69
2021/05/01 04:29:04;;;;;;;14.05;8.70;;;9.10;99.90;;;;;;5057070;28;20207;-71
2021/05/01 04:31:31;;;;;;;17.35;9.65;;;8.10;99.90;;;;;;5056727;28;20204;-69
2021/05/01 04:33:58;;;;;;;15.35;9.40;;;8.00;99.90;;;;;;5058116;28;20476;-70
2021/05/01 04:36:24;;;;;;;17.52;10.35;;;8.00;99.90;;;;;;5055204;28;20203;-69
2021/05/01 04:38:51;;;;;;;15.93;9.98;;;8.00;99.90;;;;;;5053464;28;20510;-70
2021/05/01 04:41:17;;;;;;;16.75;9.45;;;7.90;99.90;;;;;;5058277;28;20517;-69
2021/05/01 04:43:46;;;;;;;14.55;9.57;;;7.80;99.90;;;;;;5057835;28;20571;-70
2021/05/01 04:46:14;;;;;;;16.80;11.73;;;7.80;99.90;;;;;;5060379;28;20293;-72
2021/05/01 04:48:41;;;;;;;14.77;10.75;;;7.80;99.90;;;;;;5052231;28;20241;-70
2021/05/01 04:51:08;;;;;;;14.38;8.90;;;7.80;99.90;;;;;;5054449;28;20204;-71
2021/05/01 04:53:36;;;;;;;15.68;11.00;;;7.90;99.90;;;;;;5058023;28;20616;-71
2021/05/01 04:56:03;;;;;;;20.23;11.73;;;7.80;99.90;;;;;;5057093;28;20270;-70
2021/05/01 04:58:29;;;;;;;25.60;12.60;;;7.70;99.90;;;;;;5059537;28;20210;-70
2021/05/01 05:00:56;;;;;;;20.92;10.75;;;7.70;99.90;;;;;;5059897;28;20208;-69
2021/05/01 05:03:22;;;;;;;17.83;11.80;;;7.70;99.90;;;;;;5059627;28;20207;-70
2021/05/01 05:05:49;;;;;;;18.55;9.27;;;7.70;99.90;;;;;;5062036;28;20218;-70
2021/05/01 05:08:16;;;;;;;16.98;10.52;;;7.70;99.90;;;;;;5058893;28;20270;-71
2021/05/01 05:10:42;;;;;;;20.08;10.82;;;7.70;99.90;;;;;;5060218;28;20204;-69
2021/05/01 05:13:09;;;;;;;15.65;9.82;;;7.70;99.90;;;;;;5056288;28;20231;-68
2021/05/01 05:15:35;;;;;;;12.43;8.93;;;7.60;99.90;;;;;;5061901;28;20204;-68
2021/05/01 05:18:03;;;;;;;18.83;12.02;;;7.60;99.90;;;;;;5058156;28;20210;-72
2021/05/01 05:20:30;;;;;;;13.32;10.05;;;7.60;99.90;;;;;;5059245;28;20211;-71
2021/05/01 05:22:56;;;;;;;24.80;12.80;;;7.60;99.90;;;;;;5056242;28;20263;-70
2021/05/01 05:25:23;;;;;;;16.95;11.60;;;7.60;99.90;;;;;;5061177;28;20208;-69
2021/05/01 05:27:49;;;;;;;18.33;10.25;;;7.60;99.90;;;;;;5061051;28;20226;-70
2021/05/01 05:30:16;;;;;;;18.52;11.13;;;7.60;99.90;;;;;;5055574;28;20211;-70
2021/05/01 05:32:43;;;;;;;17.38;10.40;;;7.70;99.90;;;;;;5063155;28;20253;-69
2021/05/01 05:35:10;;;;;;;15.40;10.32;;;7.70;99.90;;;;;;5058554;28;20506;-70
2021/05/01 05:37:36;;;;;;;13.68;10.18;;;7.70;99.90;;;;;;5056972;28;20211;-69
2021/05/01 05:40:03;;;;;;;15.55;9.73;;;7.80;99.90;;;;;;5059685;28;20528;-69
2021/05/01 05:42:31;;;;;;;15.27;9.80;;;7.90;99.90;;;;;;5056865;28;20207;-70
2021/05/01 05:44:58;;;;;;;14.95;8.95;;;7.90;99.90;;;;;;5061468;28;20200;-69
2021/05/01 05:47:24;;;;;;;18.90;10.65;;;7.90;99.90;;;;;;5054222;28;20223;-70
2021/05/01 05:49:51;;;;;;;12.98;10.13;;;7.90;99.90;;;;;;5054379;28;20200;-68
2021/05/01 05:52:18;;;;;;;13.00;9.40;;;8.00;99.90;;;;;;5056777;28;20578;-69
2021/05/01 05:54:44;;;;;;;17.08;11.13;;;8.20;99.90;;;;;;5060593;28;20227;-69
2021/05/01 05:57:11;;;;;;;14.85;9.93;;;8.30;99.90;;;;;;5059718;28;20302;-69
2021/05/01 05:59:42;;;;;;;12.80;7.65;;;8.40;99.90;;;;;;5056512;28;20225;-69
2021/05/01 06:02:12;;;;;;;13.25;9.05;;;8.30;99.90;;;;;;5053318;28;20227;-69
2021/05/01 06:04:49;;;;;;;13.50;9.35;;;8.20;99.90;;;;;;5056241;28;20515;-68
2021/05/01 06:07:23;;;;;;;13.50;7.93;;;8.10;99.90;;;;;;5058639;28;20196;-68
2021/05/01 06:09:51;;;;;;;17.05;10.57;;;8.10;99.90;;;;;;5051538;28;20416;-70
2021/05/01 06:12:20;;;;;;;13.05;8.50;;;8.20;99.90;;;;;;5057140;28;20275;-69
2021/05/01 06:14:47;;;;;;;10.68;7.50;;;8.20;99.90;;;;;;5051823;28;20505;-69
2021/05/01 06:17:15;;;;;;;13.45;9.98;;;8.30;99.90;;;;;;5049479;28;20289;-67
2021/05/01 06:19:45;;;;;;;22.38;10.93;;;8.50;99.90;;;;;;5047699;28;20216;-68
2021/05/01 06:22:12;;;;;;;15.73;9.30;;;8.50;99.90;;;;;;5060787;28;20384;-66
2021/05/01 06:24:44;;;;;;;16.75;10.40;;;8.70;99.90;;;;;;5049128;28;20216;-66
2021/05/01 06:27:14;;;;;;;16.35;9.13;;;8.80;99.90;;;;;;5048279;28;20396;-66
2021/05/01 06:29:41;;;;;;;14.57;9.65;;;8.90;99.90;;;;;;5048799;28;20208;-65
2021/05/01 06:32:12;;;;;;;13.07;8.20;;;8.90;99.90;;;;;;5047389;28;20209;-68
2021/05/01 06:34:39;;;;;;;18.27;9.70;;;8.60;99.90;;;;;;5048455;28;20220;-67
2021/05/01 06:37:06;;;;;;;16.25;10.38;;;8.50;99.90;;;;;;5051416;28;20209;-66
2021/05/01 06:39:35;;;;;;;16.42;9.35;;;8.60;99.90;;;;;;5048210;28;20205;-66
2021/05/01 06:42:04;;;;;;;13.90;9.65;;;8.80;99.90;;;;;;5050652;28;20209;-66
2021/05/01 06:44:48;;;;;;;15.50;10.23;;;9.10;99.90;;;;;;5052771;28;20521;-65
2021/05/01 06:47:17;;;;;;;15.40;10.07;;;9.20;99.90;;;;;;5056623;28;20461;-65
2021/05/01 06:49:48;;;;;;;14.50;9.25;;;9.50;99.90;;;;;;5056109;28;20254;-65
2021/05/01 06:52:17;;;;;;;15.30;8.55;;;9.70;99.90;;;;;;5052602;28;20239;-64
2021/05/01 06:54:50;;;;;;;10.98;8.05;;;9.80;99.90;;;;;;5049025;28;20230;-64
2021/05/01 06:57:23;;;;;;;17.77;10.48;;;9.50;99.90;;;;;;5066707;28;20205;-65
2021/05/01 06:59:53;;;;;;;15.13;8.82;;;9.40;99.90;;;;;;5067356;28;20407;-65
2021/05/01 07:02:32;;;;;;;15.63;9.80;;;9.40;99.90;;;;;;5065127;28;20218;-64
2021/05/01 07:04:59;;;;;;;14.70;9.90;;;9.40;99.90;;;;;;5066896;28;20239;-65
2021/05/01 07:07:28;;;;;;;14.25;9.85;;;9.60;99.90;;;;;;5074342;28;20206;-64
2021/05/01 07:09:55;;;;;;;12.68;9.95;;;9.60;99.90;;;;;;5058930;28;20488;-65
2021/05/01 07:12:23;;;;;;;11.48;8.27;;;9.50;99.90;;;;;;5074046;28;20494;-65
2021/05/01 07:14:50;;;;;;;14.98;8.77;;;9.30;99.90;;;;;;5061032;28;20235;-66
2021/05/01 07:17:17;;;;;;;14.98;9.50;;;9.50;99.90;;;;;;5041640;28;20217;-64
2021/05/01 07:19:45;;;;;;;11.40;9.10;;;9.80;99.90;;;;;;5049161;28;20514;-65
2021/05/01 07:22:13;;;;;;;21.45;10.00;;;10.30;99.90;;;;;;5054412;28;20206;-65
2021/05/01 07:24:40;;;;;;;17.45;10.18;;;10.50;99.90;;;;;;5038633;28;20211;-65
2021/05/01 07:27:06;;;;;;;14.48;9.27;;;10.60;99.90;;;;;;5039167;28;20206;-64
2021/05/01 07:29:39;;;;;;;13.98;8.30;;;10.50;99.90;;;;;;5027847;28;20273;-65
2021/05/01 07:32:09;;;;;;;14.27;9.70;;;10.80;99.90;;;;;;5056481;28;20220;-64
2021/05/01 07:34:36;;;;;;;15.63;9.15;;;11.00;99.70;;;;;;5060074;28;20233;-65
2021/05/01 07:37:10;;;;;;;11.85;9.13;;;11.10;99.10;;;;;;5052764;28;20238;-65
2021/05/01 07:39:40;;;;;;;16.10;10.13;;;11.80;99.10;;;;;;5056667;28;20217;-65
2021/05/01 07:42:08;;;;;;;14.32;8.77;;;11.70;98.20;;;;;;5051061;28;20723;-64
2021/05/01 07:44:35;;;;;;;13.70;7.82;;;12.00;98.10;;;;;;5053309;28;20214;-70
2021/05/01 07:47:02;;;;;;;12.32;8.10;;;11.60;97.20;;;;;;5057854;28;20236;-66
2021/05/01 07:49:30;;;;;;;20.48;10.00;;;11.70;98.20;;;;;;5054714;28;20206;-65
2021/05/01 07:51:59;;;;;;;14.82;10.32;;;11.80;97.30;;;;;;5063984;28;20466;-65
2021/05/01 07:54:26;;;;;;;16.17;12.27;;;12.00;98.70;;;;;;5072017;28;20310;-65
2021/05/01 07:56:53;;;;;;;21.55;10.98;;;12.00;97.40;;;;;;5062056;28;20206;-64
2021/05/01 07:59:19;;;;;;;9.38;7.40;;;12.10;97.20;;;;;;5062390;28;20210;-64
2021/05/01 08:01:46;;;;;;;11.30;8.23;;;12.30;96.30;;;;;;5071860;28;20210;-64
2021/05/01 08:04:12;;;;;;;9.80;8.20;;;12.70;96.00;;;;;;5065273;28;20230;-65
2021/05/01 08:06:39;;;;;;;12.13;7.60;;;12.60;95.50;;;;;;5067507;28;20201;-63
2021/05/01 08:09:06;;;;;;;10.57;8.10;;;12.80;95.20;;;;;;5055940;28;20536;-64
2021/05/01 08:11:33;;;;;;;11.23;6.90;;;12.40;95.70;;;;;;5065844;28;20221;-62
2021/05/01 08:13:59;;;;;;;9.27;7.57;;;12.60;94.60;;;;;;5062895;28;20224;-66
2021/05/01 08:16:30;;;;;;;12.52;8.20;;;12.50;94.90;;;;;;5060362;28;20230;-64
2021/05/01 08:19:00;;;;;;;9.70;7.50;;;12.80;94.40;;;;;;5072118;28;20233;-64
2021/05/01 08:21:28;;;;;;;11.18;7.68;;;12.70;94.90;;;;;;5074123;28;20288;-63
2021/05/01 08:23:58;;;;;;;15.02;9.27;;;12.80;95.00;;;;;;5057212;28;20545;-63
2021/05/01 08:26:25;;;;;;;11.00;7.82;;;12.90;95.10;;;;;;5064729;28;20436;-63
2021/05/01 08:28:51;;;;;;;10.52;8.05;;;12.90;95.10;;;;;;5055014;28;20207;-63
2021/05/01 08:31:18;;;;;;;12.68;8.10;;;13.40;94.30;;;;;;5054693;28;20206;-63
2021/05/01 08:33:45;;;;;;;8.13;6.72;;;14.30;92.10;;;;;;5069705;28;20242;-64
2021/05/01 08:36:11;;;;;;;8.05;7.07;;;14.70;91.20;;;;;;5060679;28;20211;-63
2021/05/01 08:38:38;;;;;;;7.80;6.97;;;14.80;91.20;;;;;;5068063;28;20203;-62
2021/05/01 08:41:06;;;;;;;8.32;6.05;;;14.30;91.10;;;;;;5074083;28;20230;-62
2021/05/01 08:43:33;;;;;;;13.05;7.50;;;13.90;91.70;;;;;;5059980;28;20207;-63
2021/05/01 08:46:01;;;;;;;9.90;6.60;;;14.40;91.60;;;;;;5073611;28;20230;-64
2021/05/01 08:48:29;;;;;;;9.52;7.97;;;15.20;90.60;;;;;;5060055;28;20429;-63
2021/05/01 08:50:59;;;;;;;15.43;7.45;;;14.90;89.10;;;;;;5073360;28;20226;-62
2021/05/01 08:53:27;;;;;;;10.20;6.78;;;14.40;91.20;;;;;;5060394;28;20250;-63
2021/05/01 08:55:53;;;;;;;9.02;6.95;;;15.00;90.90;;;;;;5060315;28;20257;-63
2021/05/01 08:58:20;;;;;;;8.80;7.53;;;15.50;90.00;;;;;;5059779;28;20418;-64
2021/05/01 09:00:51;;;;;;;9.70;7.72;;;15.00;88.10;;;;;;5070487;28;20211;-64
2021/05/01 09:03:20;;;;;;;8.65;7.45;;;14.70;89.20;;;;;;5063627;28;20394;-64
2021/05/01 09:05:47;;;;;;;9.68;7.03;;;14.70;90.00;;;;;;5079474;28;20206;-64
2021/05/01 09:08:16;;;;;;;9.35;7.85;;;14.90;90.40;;;;;;5077550;28;20211;-64
2021/05/01 09:10:48;;;;;;;9.93;7.15;;;15.10;90.60;;;;;;5072127;28;20548;-63
2021/05/01 09:13:26;;;;;;;8.73;6.68;;;15.40;90.40;;;;;;5072936;28;20208;-64
2021/05/01 09:16:03;;;;;;;9.57;6.70;;;15.30;90.00;;;;;;5079179;28;20207;-63
2021/05/01 09:18:46;;;;;;;7.57;6.15;;;14.80;91.10;;;;;;5076472;28;20210;-65
2021/05/01 09:21:16;;;;;;;11.80;8.07;;;14.50;91.30;;;;;;5069945;28;20386;-64
2021/05/01 09:23:44;;;;;;;7.22;5.70;;;14.10;91.20;;;;;;5073182;28;20207;-63
2021/05/01 09:26:11;;;;;;;12.73;7.50;;;14.30;91.30;;;;;;5059412;28;20208;-63
2021/05/01 09:28:43;;;;;;;8.50;7.60;;;14.00;91.00;;;;;;5060454;28;20213;-63
2021/05/01 09:31:13;;;;;;;9.45;6.95;;;13.60;92.00;;;;;;5053926;28;20498;-63
2021/05/01 09:33:42;;;;;;;10.85;7.35;;;13.90;91.40;;;;;;5060456;28;20232;-64
2021/05/01 09:36:14;;;;;;;7.88;6.05;;;14.30;90.60;;;;;;5054668;28;20203;-65
2021/05/01 09:38:45;;;;;;;8.93;7.07;;;14.20;91.40;;;;;;5059324;28;20204;-64
2021/05/01 09:41:23;;;;;;;7.05;6.43;;;14.60;90.30;;;;;;5070797;28;20214;-63
2021/05/01 09:43:58;;;;;;;11.73;7.80;;;14.50;90.10;;;;;;5062467;28;20211;-62
2021/05/01 09:46:25;;;;;;;9.43;6.82;;;15.00;89.00;;;;;;5057661;28;20215;-63
2021/05/01 09:49:11;;;;;;;9.82;7.63;;;14.60;89.00;;;;;;5061804;28;20520;-64
2021/05/01 09:51:44;;;;;;;6.32;5.72;;;14.60;89.10;;;;;;5053045;28;20204;-64
2021/05/01 09:54:12;;;;;;;8.95;6.68;;;14.40;90.00;;;;;;5059726;28;20239;-64
2021/05/01 09:56:44;;;;;;;8.45;7.07;;;14.50;90.50;;;;;;5066112;28;20528;-65
2021/05/01 09:59:11;;;;;;;8.00;6.28;;;14.70;90.10;;;;;;5056712;28;20211;-63
2021/05/01 10:01:38;;;;;;;9.82;7.00;;;14.80;89.70;;;;;;5061442;28;20492;-64
2021/05/01 10:04:18;;;;;;;11.10;7.00;;;14.90;89.90;;;;;;5059454;28;20213;-63
2021/05/01 10:07:03;;;;;;;6.78;6.03;;;15.00;89.40;;;;;;5065465;28;20207;-63
2021/05/01 10:09:41;;;;;;;8.80;6.70;;;15.30;87.20;;;;;;5059615;28;20209;-63
2021/05/01 10:12:14;;;;;;;7.38;6.35;;;15.00;87.40;;;;;;5070092;28;20206;-64
2021/05/01 10:14:46;;;;;;;8.77;6.30;;;14.90;88.70;;;;;;5060846;28;20607;-64
2021/05/01 10:17:23;;;;;;;9.38;7.13;;;14.90;89.10;;;;;;5066762;28;20528;-63
2021/05/01 10:20:01;;;;;;;10.00;7.78;;;14.70;88.70;;;;;;5053788;28;20318;-63
2021/05/01 10:22:37;;;;;;;8.57;7.68;;;15.10;89.60;;;;;;5061839;28;20228;-63
2021/05/01 10:25:07;;;;;;;9.70;7.72;;;15.70;86.70;;;;;;5056171;28;20212;-64
2021/05/01 10:28:01;;;;;;;7.85;7.05;;;15.80;84.00;;;;;;5041854;28;20408;-64
2021/05/01 10:30:45;;;;;;;8.85;7.95;;;15.70;85.90;;;;;;5050503;28;20271;-63
2021/05/01 10:36:30;;;;;;;7.05;6.35;;;15.60;84.40;;;;;;5057790;28;20211;-63
2021/05/01 10:38:58;;;;;;;6.85;6.10;;;14.40;89.70;;;;;;5058742;28;20209;-65
2021/05/01 10:41:25;;;;;;;8.10;7.30;;;14.80;88.90;;;;;;5056714;28;20502;-65
2021/05/01 10:43:55;;;;;;;8.00;6.22;;;15.30;87.30;;;;;;5048491;28;20217;-64
2021/05/01 10:46:25;;;;;;;8.40;6.25;;;15.50;86.40;;;;;;5057939;28;20542;-65
2021/05/01 10:48:58;;;;;;;7.65;6.80;;;15.40;87.00;;;;;;5068592;28;20537;-65
2021/05/01 10:51:26;;;;;;;8.05;6.65;;;15.40;87.00;;;;;;5059967;28;20203;-64
2021/05/01 10:54:09;;;;;;;8.32;7.53;;;15.80;84.80;;;;;;5067557;28;20295;-65
2021/05/01 10:56:36;;;;;;;9.98;8.10;;;15.70;86.80;;;;;;5069724;28;20275;-63
2021/05/01 10:59:08;;;;;;;8.98;8.07;;;16.00;85.70;;;;;;5058392;28;20205;-65
2021/05/01 11:01:47;;;;;;;8.85;7.45;;;16.00;86.40;;;;;;5057413;28;20511;-64
2021/05/01 11:04:25;;;;;;;8.50;7.23;;;16.00;86.20;;;;;;5057949;28;20209;-64
2021/05/01 11:07:19;;;;;;;8.30;6.53;;;16.40;83.80;;;;;;5058526;28;20483;-65
2021/05/01 11:09:50;;;;;;;11.07;9.37;;;16.90;80.50;;;;;;5069630;28;20401;-65
2021/05/01 11:12:18;;;;;;;7.77;6.97;;;17.50;77.90;;;;;;5053857;28;20444;-65
2021/05/01 11:14:49;;;;;;;7.87;7.07;;;16.80;79.00;;;;;;5052103;28;20463;-64
2021/05/01 11:17:30;;;;;;;8.53;7.60;;;16.00;83.70;;;;;;5045969;28;20445;-65
2021/05/01 11:20:13;;;;;;;8.27;7.57;;;15.90;84.10;;;;;;5057998;28;20416;-64
2021/05/01 11:22:42;;;;;;;10.40;8.10;;;15.40;85.80;;;;;;5058151;28;20208;-65
2021/05/01 11:25:13;;;;;;;9.43;8.63;;;15.20;88.50;;;;;;5058253;28;20443;-65
2021/05/01 11:27:41;;;;;;;7.90;7.10;;;15.10;87.30;;;;;;5026863;28;20218;-65
2021/05/01 11:30:10;;;;;;;8.70;7.20;;;15.20;88.30;;;;;;5048753;28;20212;-66
2021/05/01 11:32:38;;;;;;;8.00;7.10;;;16.00;85.30;;;;;;5039247;28;20211;-64
2021/05/01 11:35:25;;;;;;;9.32;8.50;;;16.30;84.10;;;;;;5066076;28;20538;-68
2021/05/01 11:37:52;;;;;;;9.00;8.10;;;16.10;85.00;;;;;;5053908;28;20255;-65
2021/05/01 11:40:22;;;;;;;9.20;8.30;;;16.10;84.00;;;;;;5071188;28;20632;-63
2021/05/01 11:42:50;;;;;;;9.50;8.50;;;16.10;85.00;;;;;;5060438;28;20452;-65
2021/05/01 11:45:59;;;;;;;11.07;9.87;;;16.10;85.30;;;;;;5053415;28;20807;-65
2021/05/01 11:48:35;;;;;;;9.03;7.50;;;16.30;83.50;;;;;;5041697;28;20632;-65
2021/05/01 11:51:05;;;;;;;9.03;8.27;;;16.50;84.10;;;;;;5057695;28;20462;-66
2021/05/01 11:53:42;;;;;;;8.93;8.00;;;16.90;81.80;;;;;;5056603;28;20450;-64
2021/05/01 11:56:34;;;;;;;8.03;7.23;;;16.30;83.10;;;;;;5061355;28;20452;-66
2021/05/01 11:59:09;;;;;;;8.07;7.27;;;16.30;84.60;;;;;;5043335;28;20474;-65
2021/05/01 12:01:49;;;;;;;8.50;7.57;;;15.80;85.30;;;;;;5056200;28;20504;-65
2021/05/01 12:04:19;;;;;;;9.27;8.40;;;16.20;85.30;;;;;;5053021;28;20481;-65
2021/05/01 12:06:53;;;;;;;9.30;8.37;;;16.50;82.70;;;;;;5055098;28;20425;-65
2021/05/01 12:09:30;;;;;;;8.70;7.80;;;17.00;82.20;;;;;;5063741;28;20451;-65
2021/05/01 12:11:58;;;;;;;9.57;8.33;;;17.10;80.90;;;;;;5053113;28;20492;-65
2021/05/01 12:14:28;;;;;;;9.50;8.50;;;17.40;80.30;;;;;;5054414;28;20492;-65
2021/05/01 12:17:10;;;;;;;9.83;8.83;;;16.90;79.90;;;;;;5067341;28;20450;-65
2021/05/01 12:19:47;;;;;;;10.63;9.43;;;16.60;82.40;;;;;;5062094;28;20446;-66
2021/05/01 12:22:30;;;;;;;8.77;7.97;;;16.80;82.90;;;;;;5069105;28;20406;-65
2021/05/01 12:24:57;;;;;;;10.13;9.23;;;16.20;83.20;;;;;;5062431;28;20423;-65
2021/05/01 12:27:51;;;;;;;9.07;8.17;;;16.60;82.20;;;;;;5049575;28;20708;-67
2021/05/01 12:30:36;;;;;;;9.47;8.60;;;16.40;83.00;;;;;;5068988;28;20522;-65
2021/05/01 12:33:32;;;;;;;9.97;9.10;;;16.10;83.70;;;;;;5070202;28;20465;-66
2021/05/01 12:36:10;;;;;;;10.47;8.10;;;16.20;83.10;;;;;;5069957;28;20642;-64
2021/05/01 12:38:39;;;;;;;9.43;8.43;;;16.10;84.10;;;;;;5045949;28;20497;-65
2021/05/01 12:43:35;;;;;;;10.33;9.07;;;16.00;85.20;;;;;;5039039;28;20633;-66
2021/05/01 12:46:37;;;;;;;12.77;9.60;;;16.00;86.90;;;;;;5056189;28;20458;-65
2021/05/01 12:49:21;;;;;;;10.43;9.40;;;15.80;86.20;;;;;;5044548;28;20734;-65
2021/05/01 12:52:03;;;;;;;10.53;9.53;;;16.00;87.80;;;;;;5042570;28;20462;-66
2021/05/01 12:54:35;;;;;;;11.73;10.57;;;16.40;86.00;;;;;;5056232;28;20449;-65
2021/05/01 12:57:06;;;;;;;12.60;9.80;;;16.00;85.80;;;;;;5043284;28;20806;-67
2021/05/01 12:59:43;;;;;;;12.73;10.43;;;15.70;88.20;;;;;;5054924;28;20448;-65
2021/05/01 13:02:19;;;;;;;13.45;10.55;;;15.90;88.00;;;;;;5054603;28;20205;-66
2021/05/01 13:05:16;;;;;;;11.13;9.93;;;15.60;87.00;;;;;;5044898;28;20212;-66